sensor_id;sensor_type;location;lat;lon;timestamp;pressure;altitude;pressure_sealevel;temperature
64600;BMP280;6553;48.412;9.514;2023-08-20T00:01:04;72216.22;;;25.07
64600;BMP280;6553;48.412;9.514;2023-08-20T00:03:30;72217.94;;;25.06
64600;BMP280;6553;48.412;9.514;2023-08-20T00:05:57;72216.34;;;25.05
64600;BMP280;6553;48.412;9.514;2023-08-20T00:08:22;72225.13;;;25.08
64600;BMP280;6553;48.412;9.514;2023-08-20T00:10:48;72218.47;;;25.07
64600;BMP280;6553;48.412;9.514;2023-08-20T00:13:14;72214.09;;;25.05
64600;BMP280;6553;48.412;9.514;2023-08-20T00:15:40;72218.47;;;25.07
64600;BMP280;6553;48.412;9.514;2023-08-20T00:18:06;72216.34;;;25.05
64600;BMP280;6553;48.412;9.514;2023-08-20T00:20:32;72213.56;;;25.05
64600;BMP280;6553;48.412;9.514;2023-08-20T00:22:59;72214.63;;;25.06
64600;BMP280;6553;48.412;9.514;2023-08-20T00:25:25;72217.41;;;25.06
64600;BMP280;6553;48.412;9.514;2023-08-20T00:27:51;72213.03;;;25.04
64600;BMP280;6553;48.412;9.514;2023-08-20T00:30:17;72215.28;;;25.04
64600;BMP280;6553;48.412;9.514;2023-08-20T00:32:43;72218.06;;;25.04
64600;BMP280;6553;48.412;9.514;2023-08-20T00:35:08;72212.63;;;25.01
64600;BMP280;6553;48.412;9.514;2023-08-20T00:37:36;72216.47;;;25.02
64600;BMP280;6553;48.412;9.514;2023-08-20T00:40:02;72211.56;;;25.00
64600;BMP280;6553;48.412;9.514;2023-08-20T00:42:31;72217.53;;;25.03
64600;BMP280;6553;48.412;9.514;2023-08-20T00:44:57;72210.34;;;25.02
64600;BMP280;6553;48.412;9.514;2023-08-20T00:47:23;72212.63;;;25.01
64600;BMP280;6553;48.412;9.514;2023-08-20T00:49:49;72215.28;;;25.04
64600;BMP280;6553;48.412;9.514;2023-08-20T00:52:16;72198.66;;;24.91
64600;BMP280;6553;48.412;9.514;2023-08-20T00:54:45;72213.16;;;25.02
64600;BMP280;6553;48.412;9.514;2023-08-20T00:57:14;72209.31;;;25.01
64600;BMP280;6553;48.412;9.514;2023-08-20T00:59:42;72214.88;;;25.01
64600;BMP280;6553;48.412;9.514;2023-08-20T01:02:08;72212.09;;;25.01
64600;BMP280;6553;48.412;9.514;2023-08-20T01:04:34;72211.56;;;25.00
64600;BMP280;6553;48.412;9.514;2023-08-20T01:07:18;72215.41;;;25.01
64600;BMP280;6553;48.412;9.514;2023-08-20T01:10:19;72209.97;;;24.99
64600;BMP280;6553;48.412;9.514;2023-08-20T01:12:51;72211.56;;;25.00
64600;BMP280;6553;48.412;9.514;2023-08-20T01:15:17;72212.75;;;24.99
64600;BMP280;6553;48.412;9.514;2023-08-20T01:17:43;72214.88;;;25.01
64600;BMP280;6553;48.412;9.514;2023-08-20T01:20:13;72209.97;;;24.99
64600;BMP280;6553;48.412;9.514;2023-08-20T01:23:28;72208.75;;;25.00
64600;BMP280;6553;48.412;9.514;2023-08-20T01:26:48;72208.22;;;25.00
64600;BMP280;6553;48.412;9.514;2023-08-20T01:29:18;72205.69;;;24.95
64600;BMP280;6553;48.412;9.514;2023-08-20T01:31:45;72209.41;;;24.98
64600;BMP280;6553;48.412;9.514;2023-08-20T01:34:11;72211.00;;;25.00
64600;BMP280;6553;48.412;9.514;2023-08-20T01:36:38;72209.97;;;24.99
64600;BMP280;6553;48.412;9.514;2023-08-20T01:39:04;72208.38;;;24.97
64600;BMP280;6553;48.412;9.514;2023-08-20T01:41:31;72204.50;;;24.96
64600;BMP280;6553;48.412;9.514;2023-08-20T01:43:56;72210.09;;;24.96
64600;BMP280;6553;48.412;9.514;2023-08-20T01:46:22;72208.91;;;24.98
64600;BMP280;6553;48.412;9.514;2023-08-20T01:48:50;72207.28;;;24.96
64600;BMP280;6553;48.412;9.514;2023-08-20T01:51:16;72207.97;;;24.94
64600;BMP280;6553;48.412;9.514;2023-08-20T01:53:42;72205.56;;;24.97
64600;BMP280;6553;48.412;9.514;2023-08-20T01:56:12;72207.84;;;24.97
64600;BMP280;6553;48.412;9.514;2023-08-20T01:58:39;72205.03;;;24.97
64600;BMP280;6553;48.412;9.514;2023-08-20T02:01:04;72206.25;;;24.95
64600;BMP280;6553;48.412;9.514;2023-08-20T02:03:30;72203.97;;;24.96
64600;BMP280;6553;48.412;9.514;2023-08-20T02:05:56;72210.63;;;24.97
64600;BMP280;6553;48.412;9.514;2023-08-20T02:08:23;72202.38;;;24.94
64600;BMP280;6553;48.412;9.514;2023-08-20T02:10:49;72201.84;;;24.94
64600;BMP280;6553;48.412;9.514;2023-08-20T02:13:14;72203.44;;;24.95
64600;BMP280;6553;48.412;9.514;2023-08-20T02:15:40;72200.25;;;24.92
64600;BMP280;6553;48.412;9.514;2023-08-20T02:18:06;72200.78;;;24.93
64600;BMP280;6553;48.412;9.514;2023-08-20T02:20:32;72200.78;;;24.93
64600;BMP280;6553;48.412;9.514;2023-08-20T02:22:57;72203.06;;;24.92
64600;BMP280;6553;48.412;9.514;2023-08-20T02:25:24;72201.47;;;24.91
64600;BMP280;6553;48.412;9.514;2023-08-20T02:27:54;72200.78;;;24.93
64600;BMP280;6553;48.412;9.514;2023-08-20T02:30:20;72200.25;;;24.92
64600;BMP280;6553;48.412;9.514;2023-08-20T02:32:45;72203.56;;;24.93
64600;BMP280;6553;48.412;9.514;2023-08-20T02:35:11;72199.31;;;24.89
64600;BMP280;6553;48.412;9.514;2023-08-20T02:37:40;72203.19;;;24.90
64600;BMP280;6553;48.412;9.514;2023-08-20T02:40:07;72200.78;;;24.93
64600;BMP280;6553;48.412;9.514;2023-08-20T02:42:34;72205.84;;;24.92
64600;BMP280;6553;48.412;9.514;2023-08-20T02:44:59;72204.78;;;24.91
64600;BMP280;6553;48.412;9.514;2023-08-20T02:47:25;72201.31;;;24.93
64600;BMP280;6553;48.412;9.514;2023-08-20T02:49:51;72203.06;;;24.92
64600;BMP280;6553;48.412;9.514;2023-08-20T02:52:17;72202.50;;;24.92
64600;BMP280;6553;48.412;9.514;2023-08-20T02:54:42;72203.72;;;24.90
64600;BMP280;6553;48.412;9.514;2023-08-20T02:57:08;72197.59;;;24.90
64600;BMP280;6553;48.412;9.514;2023-08-20T02:59:34;72202.13;;;24.89
64600;BMP280;6553;48.412;9.514;2023-08-20T03:02:00;72197.06;;;24.89
64600;BMP280;6553;48.412;9.514;2023-08-20T03:04:26;72201.59;;;24.88
64600;BMP280;6553;48.412;9.514;2023-08-20T03:06:51;72200.00;;;24.87
64600;BMP280;6553;48.412;9.514;2023-08-20T03:09:17;72198.28;;;24.88
64600;BMP280;6553;48.412;9.514;2023-08-20T03:11:43;72200.91;;;24.90
64600;BMP280;6553;48.412;9.514;2023-08-20T03:14:09;72200.91;;;24.90
64600;BMP280;6553;48.412;9.514;2023-08-20T03:16:34;72196.00;;;24.88
64600;BMP280;6553;48.412;9.514;2023-08-20T03:19:00;72200.53;;;24.87
64600;BMP280;6553;48.412;9.514;2023-08-20T03:21:26;72199.31;;;24.89
64600;BMP280;6553;48.412;9.514;2023-08-20T03:23:51;72199.31;;;24.89
64600;BMP280;6553;48.412;9.514;2023-08-20T03:26:17;72196.00;;;24.88
64600;BMP280;6553;48.412;9.514;2023-08-20T03:28:43;72198.78;;;24.88
64600;BMP280;6553;48.412;9.514;2023-08-20T03:31:09;72198.28;;;24.88
64600;BMP280;6553;48.412;9.514;2023-08-20T03:33:39;72196.66;;;24.86
64600;BMP280;6553;48.412;9.514;2023-08-20T03:36:05;72192.69;;;24.88
64600;BMP280;6553;48.412;9.514;2023-08-20T03:38:31;72194.41;;;24.87
64600;BMP280;6553;48.412;9.514;2023-08-20T03:40:57;72199.44;;;24.86
64600;BMP280;6553;48.412;9.514;2023-08-20T03:43:22;72191.06;;;24.86
64600;BMP280;6553;48.412;9.514;2023-08-20T03:45:52;72193.88;;;24.86
64600;BMP280;6553;48.412;9.514;2023-08-20T03:48:18;72193.47;;;24.83
64600;BMP280;6553;48.412;9.514;2023-08-20T03:50:44;72196.13;;;24.86
64600;BMP280;6553;48.412;9.514;2023-08-20T03:53:10;72197.19;;;24.87
64600;BMP280;6553;48.412;9.514;2023-08-20T03:55:35;72195.06;;;24.85
64600;BMP280;6553;48.412;9.514;2023-08-20T03:58:01;72197.19;;;24.87
64600;BMP280;6553;48.412;9.514;2023-08-20T04:00:27;72196.28;;;24.83
64600;BMP280;6553;48.412;9.514;2023-08-20T04:02:52;72196.13;;;24.86
64600;BMP280;6553;48.412;9.514;2023-08-20T04:05:18;72194.56;;;24.84
64600;BMP280;6553;48.412;9.514;2023-08-20T04:07:44;72197.34;;;24.84
64600;BMP280;6553;48.412;9.514;2023-08-20T04:10:10;72186.56;;;24.76
64600;BMP280;6553;48.412;9.514;2023-08-20T04:12:36;72196.81;;;24.84
64600;BMP280;6553;48.412;9.514;2023-08-20T04:15:02;72197.88;;;24.85
64600;BMP280;6553;48.412;9.514;2023-08-20T04:17:28;72190.28;;;24.80
64600;BMP280;6553;48.412;9.514;2023-08-20T04:19:54;72189.09;;;24.82
64600;BMP280;6553;48.412;9.514;2023-08-20T04:22:20;72195.06;;;24.85
64600;BMP280;6553;48.412;9.514;2023-08-20T04:24:45;72191.75;;;24.84
64600;BMP280;6553;48.412;9.514;2023-08-20T04:27:11;72195.22;;;24.82
64600;BMP280;6553;48.412;9.514;2023-08-20T04:29:40;72195.22;;;24.82
64600;BMP280;6553;48.412;9.514;2023-08-20T04:32:06;72194.13;;;24.81
64600;BMP280;6553;48.412;9.514;2023-08-20T04:34:32;72185.91;;;24.78
64600;BMP280;6553;48.412;9.514;2023-08-20T04:36:58;72189.75;;;24.79
64600;BMP280;6553;48.412;9.514;2023-08-20T04:39:24;72195.22;;;24.82
64600;BMP280;6553;48.412;9.514;2023-08-20T04:41:52;72191.34;;;24.81
64600;BMP280;6553;48.412;9.514;2023-08-20T04:44:19;72188.03;;;24.81
64600;BMP280;6553;48.412;9.514;2023-08-20T04:46:46;72190.94;;;24.78
64600;BMP280;6553;48.412;9.514;2023-08-20T04:49:12;72188.03;;;24.81
64600;BMP280;6553;48.412;9.514;2023-08-20T04:51:38;72190.81;;;24.81
64600;BMP280;6553;48.412;9.514;2023-08-20T04:54:04;72185.91;;;24.78
64600;BMP280;6553;48.412;9.514;2023-08-20T04:56:30;72188.03;;;24.81
64600;BMP280;6553;48.412;9.514;2023-08-20T04:58:56;72189.22;;;24.79
64600;BMP280;6553;48.412;9.514;2023-08-20T05:01:45;72179.13;;;24.69
64600;BMP280;6553;48.412;9.514;2023-08-20T05:04:12;72184.03;;;24.71
64600;BMP280;6553;48.412;9.514;2023-08-20T05:06:37;72188.69;;;24.78
64600;BMP280;6553;48.412;9.514;2023-08-20T05:09:03;72188.69;;;24.78
64600;BMP280;6553;48.412;9.514;2023-08-20T05:11:29;72185.50;;;24.75
64600;BMP280;6553;48.412;9.514;2023-08-20T05:13:57;72187.63;;;24.77
64600;BMP280;6553;48.412;9.514;2023-08-20T05:16:23;72190.81;;;24.81
64600;BMP280;6553;48.412;9.514;2023-08-20T05:18:50;72187.09;;;24.77
64600;BMP280;6553;48.412;9.514;2023-08-20T05:21:15;72189.91;;;24.77
64600;BMP280;6553;48.412;9.514;2023-08-20T05:23:41;72183.25;;;24.76
64600;BMP280;6553;48.412;9.514;2023-08-20T05:26:07;72183.78;;;24.76
64600;BMP280;6553;48.412;9.514;2023-08-20T05:28:34;72190.94;;;24.78
64600;BMP280;6553;48.412;9.514;2023-08-20T05:31:00;72188.69;;;24.78
64600;BMP280;6553;48.412;9.514;2023-08-20T05:33:26;72187.63;;;24.77
64600;BMP280;6553;48.412;9.514;2023-08-20T05:35:53;72185.91;;;24.78
64600;BMP280;6553;48.412;9.514;2023-08-20T05:38:21;72185.50;;;24.75
64600;BMP280;6553;48.412;9.514;2023-08-20T05:40:48;72187.63;;;24.77
64600;BMP280;6553;48.412;9.514;2023-08-20T05:43:14;72187.22;;;24.74
64600;BMP280;6553;48.412;9.514;2023-08-20T05:45:40;72184.97;;;24.75
64600;BMP280;6553;48.412;9.514;2023-08-20T05:48:07;72185.50;;;24.75
64600;BMP280;6553;48.412;9.514;2023-08-20T05:50:33;72186.56;;;24.76
64600;BMP280;6553;48.412;9.514;2023-08-20T05:53:00;72189.91;;;24.77
64600;BMP280;6553;48.412;9.514;2023-08-20T05:55:27;72187.63;;;24.77
64600;BMP280;6553;48.412;9.514;2023-08-20T05:57:54;72181.66;;;24.74
64600;BMP280;6553;48.412;9.514;2023-08-20T06:00:20;72187.22;;;24.74
64600;BMP280;6553;48.412;9.514;2023-08-20T06:02:47;72186.03;;;24.76
64600;BMP280;6553;48.412;9.514;2023-08-20T06:05:12;72179.50;;;24.72
64600;BMP280;6553;48.412;9.514;2023-08-20T06:07:39;72178.97;;;24.72
64600;BMP280;6553;48.412;9.514;2023-08-20T06:10:06;72183.38;;;24.73
64600;BMP280;6553;48.412;9.514;2023-08-20T06:12:33;72186.56;;;24.76
64600;BMP280;6553;48.412;9.514;2023-08-20T06:14:59;72183.38;;;24.73
64600;BMP280;6553;48.412;9.514;2023-08-20T06:17:25;72184.44;;;24.74
64600;BMP280;6553;48.412;9.514;2023-08-20T06:19:51;72181.66;;;24.74
64600;BMP280;6553;48.412;9.514;2023-08-20T06:22:16;72182.31;;;24.72
64600;BMP280;6553;48.412;9.514;2023-08-20T06:24:42;72184.44;;;24.74
64600;BMP280;6553;48.412;9.514;2023-08-20T06:27:08;72179.91;;;24.75
64600;BMP280;6553;48.412;9.514;2023-08-20T06:29:33;72186.03;;;24.76
64600;BMP280;6553;48.412;9.514;2023-08-20T06:31:59;72180.97;;;24.76
64600;BMP280;6553;48.412;9.514;2023-08-20T06:34:25;72182.69;;;24.75
64600;BMP280;6553;48.412;9.514;2023-08-20T06:36:52;72184.97;;;24.75
64600;BMP280;6553;48.412;9.514;2023-08-20T06:39:17;72184.97;;;24.75
64600;BMP280;6553;48.412;9.514;2023-08-20T06:41:45;72186.69;;;24.74
64600;BMP280;6553;48.412;9.514;2023-08-20T06:44:19;72181.66;;;24.74
64600;BMP280;6553;48.412;9.514;2023-08-20T06:46:45;72182.84;;;24.73
64600;BMP280;6553;48.412;9.514;2023-08-20T06:49:10;72181.66;;;24.74
64600;BMP280;6553;48.412;9.514;2023-08-20T06:51:36;72183.38;;;24.73
64600;BMP280;6553;48.412;9.514;2023-08-20T06:54:02;72183.38;;;24.73
64600;BMP280;6553;48.412;9.514;2023-08-20T06:56:28;72183.91;;;24.74
64600;BMP280;6553;48.412;9.514;2023-08-20T06:58:53;72182.84;;;24.73
64600;BMP280;6553;48.412;9.514;2023-08-20T07:01:20;72182.31;;;24.72
64600;BMP280;6553;48.412;9.514;2023-08-20T07:03:46;72183.25;;;24.76
64600;BMP280;6553;48.412;9.514;2023-08-20T07:06:12;72188.81;;;24.76
64600;BMP280;6553;48.412;9.514;2023-08-20T07:08:40;72189.34;;;24.76
64600;BMP280;6553;48.412;9.514;2023-08-20T07:11:07;72189.22;;;24.79
64600;BMP280;6553;48.412;9.514;2023-08-20T07:13:33;72186.56;;;24.76
64600;BMP280;6553;48.412;9.514;2023-08-20T07:16:00;72186.41;;;24.79
64600;BMP280;6553;48.412;9.514;2023-08-20T07:18:25;72183.78;;;24.76
64600;BMP280;6553;48.412;9.514;2023-08-20T07:20:51;72189.91;;;24.77
64600;BMP280;6553;48.412;9.514;2023-08-20T07:23:19;72187.50;;;24.80
64600;BMP280;6553;48.412;9.514;2023-08-20T07:25:45;72189.75;;;24.79
64600;BMP280;6553;48.412;9.514;2023-08-20T07:28:13;72192.41;;;24.82
64600;BMP280;6553;48.412;9.514;2023-08-20T07:30:38;72189.63;;;24.82
64600;BMP280;6553;48.412;9.514;2023-08-20T07:33:07;72196.41;;;24.81
64600;BMP280;6553;48.412;9.514;2023-08-20T07:35:33;72192.41;;;24.82
64600;BMP280;6553;48.412;9.514;2023-08-20T07:38:00;72198.00;;;24.82
64600;BMP280;6553;48.412;9.514;2023-08-20T07:40:26;72192.69;;;24.88
64600;BMP280;6553;48.412;9.514;2023-08-20T07:42:51;72190.28;;;24.80
64600;BMP280;6553;48.412;9.514;2023-08-20T07:45:17;72190.53;;;24.86
64600;BMP280;6553;48.412;9.514;2023-08-20T07:47:43;72195.47;;;24.88
64600;BMP280;6553;48.412;9.514;2023-08-20T07:50:09;72193.88;;;24.86
64600;BMP280;6553;48.412;9.514;2023-08-20T07:52:35;72197.19;;;24.87
64600;BMP280;6553;48.412;9.514;2023-08-20T07:55:00;72199.84;;;24.89
64600;BMP280;6553;48.412;9.514;2023-08-20T07:57:26;72203.72;;;24.90
64600;BMP280;6553;48.412;9.514;2023-08-20T07:59:52;72198.13;;;24.90
64600;BMP280;6553;48.412;9.514;2023-08-20T08:02:18;72203.06;;;24.92
64600;BMP280;6553;48.412;9.514;2023-08-20T08:04:44;72203.56;;;24.93
64600;BMP280;6553;48.412;9.514;2023-08-20T08:07:10;72210.63;;;24.97
64600;BMP280;6553;48.412;9.514;2023-08-20T08:09:36;72207.28;;;24.96
64600;BMP280;6553;48.412;9.514;2023-08-20T08:12:04;72209.97;;;24.99
64600;BMP280;6553;48.412;9.514;2023-08-20T08:14:30;72213.16;;;25.02
64600;BMP280;6553;48.412;9.514;2023-08-20T08:16:56;72210.91;;;25.02
64600;BMP280;6553;48.412;9.514;2023-08-20T08:19:22;72213.03;;;25.04
64600;BMP280;6553;48.412;9.514;2023-08-20T08:21:48;72213.56;;;25.05
64600;BMP280;6553;48.412;9.514;2023-08-20T08:24:15;72214.19;;;25.03
64600;BMP280;6553;48.412;9.514;2023-08-20T08:26:41;72214.75;;;25.03
64600;BMP280;6553;48.412;9.514;2023-08-20T08:29:08;72207.03;;;25.01
64600;BMP280;6553;48.412;9.514;2023-08-20T08:31:34;72209.84;;;25.01
64600;BMP280;6553;48.412;9.514;2023-08-20T08:34:02;72217.00;;;25.03
64600;BMP280;6553;48.412;9.514;2023-08-20T08:36:28;72209.69;;;25.04
64600;BMP280;6553;48.412;9.514;2023-08-20T08:38:54;72214.75;;;25.03
64600;BMP280;6553;48.412;9.514;2023-08-20T08:41:22;72217.41;;;25.06
64600;BMP280;6553;48.412;9.514;2023-08-20T08:43:51;72213.56;;;25.05
64600;BMP280;6553;48.412;9.514;2023-08-20T08:46:17;72212.34;;;25.06
64600;BMP280;6553;48.412;9.514;2023-08-20T08:48:45;72219.53;;;25.08
64600;BMP280;6553;48.412;9.514;2023-08-20T08:51:15;72220.06;;;25.08
64600;BMP280;6553;48.412;9.514;2023-08-20T08:53:46;72212.50;;;25.04
64600;BMP280;6553;48.412;9.514;2023-08-20T08:56:12;72216.75;;;25.08
64600;BMP280;6553;48.412;9.514;2023-08-20T08:58:38;72220.47;;;25.11
64600;BMP280;6553;48.412;9.514;2023-08-20T09:01:03;72222.19;;;25.10
64600;BMP280;6553;48.412;9.514;2023-08-20T09:03:29;72219.00;;;25.07
64600;BMP280;6553;48.412;9.514;2023-08-20T09:05:58;72215.66;;;25.07
64600;BMP280;6553;48.412;9.514;2023-08-20T09:08:30;72224.44;;;25.10
64600;BMP280;6553;48.412;9.514;2023-08-20T09:10:59;72221.66;;;25.10
64600;BMP280;6553;48.412;9.514;2023-08-20T09:13:39;72218.34;;;25.09
64600;BMP280;6553;48.412;9.514;2023-08-20T09:16:07;72216.06;;;25.10
64600;BMP280;6553;48.412;9.514;2023-08-20T09:20:37;72220.59;;;25.09
64600;BMP280;6553;48.412;9.514;2023-08-20T09:23:04;72217.81;;;25.09
64600;BMP280;6553;48.412;9.514;2023-08-20T09:25:30;72222.72;;;25.11
64600;BMP280;6553;48.412;9.514;2023-08-20T09:27:55;72227.63;;;25.13
64600;BMP280;6553;48.412;9.514;2023-08-20T09:30:21;72226.59;;;25.12
64600;BMP280;6553;48.412;9.514;2023-08-20T09:33:08;72223.66;;;25.14
64600;BMP280;6553;48.412;9.514;2023-08-20T09:35:34;72224.84;;;25.13
64600;BMP280;6553;48.412;9.514;2023-08-20T09:38:00;72229.25;;;25.14
64600;BMP280;6553;48.412;9.514;2023-08-20T09:40:27;72229.25;;;25.14
64600;BMP280;6553;48.412;9.514;2023-08-20T09:42:54;72228.72;;;25.14
64600;BMP280;6553;48.412;9.514;2023-08-20T09:45:21;72223.66;;;25.14
64600;BMP280;6553;48.412;9.514;2023-08-20T09:47:55;72220.31;;;25.14
64600;BMP280;6553;48.412;9.514;2023-08-20T09:50:23;72230.72;;;25.18
64600;BMP280;6553;48.412;9.514;2023-08-20T09:53:06;72226.31;;;25.17
64600;BMP280;6553;48.412;9.514;2023-08-20T09:55:41;72227.91;;;25.18
64600;BMP280;6553;48.412;9.514;2023-08-20T09:58:08;72223.13;;;25.14
64600;BMP280;6553;48.412;9.514;2023-08-20T10:00:35;72226.84;;;25.17
64600;BMP280;6553;48.412;9.514;2023-08-20T10:03:02;72219.41;;;25.10
64600;BMP280;6553;48.412;9.514;2023-08-20T10:05:28;72235.06;;;25.20
64600;BMP280;6553;48.412;9.514;2023-08-20T10:07:55;72231.78;;;25.19
64600;BMP280;6553;48.412;9.514;2023-08-20T10:10:24;72227.91;;;25.18
64600;BMP280;6553;48.412;9.514;2023-08-20T10:12:50;72226.69;;;25.20
64600;BMP280;6553;48.412;9.514;2023-08-20T10:15:16;72228.97;;;25.19
64600;BMP280;6553;48.412;9.514;2023-08-20T10:17:44;72238.28;;;25.23
64600;BMP280;6553;48.412;9.514;2023-08-20T10:20:14;72232.19;;;25.22
64600;BMP280;6553;48.412;9.514;2023-08-20T10:22:43;72235.50;;;25.23
64600;BMP280;6553;48.412;9.514;2023-08-20T10:25:11;72231.66;;;25.22
64600;BMP280;6553;48.412;9.514;2023-08-20T10:27:40;72232.69;;;25.23
64600;BMP280;6553;48.412;9.514;2023-08-20T10:30:17;72230.03;;;25.20
64600;BMP280;6553;48.412;9.514;2023-08-20T10:32:57;72233.22;;;25.23
64600;BMP280;6553;48.412;9.514;2023-08-20T10:35:47;72226.31;;;25.17
64600;BMP280;6553;48.412;9.514;2023-08-20T10:38:14;72233.91;;;25.21
64600;BMP280;6553;48.412;9.514;2023-08-20T10:40:52;72236.53;;;25.24
64600;BMP280;6553;48.412;9.514;2023-08-20T10:43:37;72233.22;;;25.23
64600;BMP280;6553;48.412;9.514;2023-08-20T10:46:22;72235.91;;;25.26
64600;BMP280;6553;48.412;9.514;2023-08-20T10:49:01;72241.50;;;25.26
64600;BMP280;6553;48.412;9.514;2023-08-20T10:51:36;72241.50;;;25.26
64600;BMP280;6553;48.412;9.514;2023-08-20T10:56:47;72233.75;;;25.24
64600;BMP280;6553;48.412;9.514;2023-08-20T10:59:21;72238.16;;;25.25
64600;BMP280;6553;48.412;9.514;2023-08-20T11:01:53;72232.69;;;25.23
64600;BMP280;6553;48.412;9.514;2023-08-20T11:04:23;72238.16;;;25.25
64600;BMP280;6553;48.412;9.514;2023-08-20T11:06:59;72238.16;;;25.25
64600;BMP280;6553;48.412;9.514;2023-08-20T11:09:30;72239.72;;;25.27
64600;BMP280;6553;48.412;9.514;2023-08-20T11:11:57;72238.69;;;25.26
64600;BMP280;6553;48.412;9.514;2023-08-20T11:14:23;72231.50;;;25.24
64600;BMP280;6553;48.412;9.514;2023-08-20T11:16:50;72236.41;;;25.26
64600;BMP280;6553;48.412;9.514;2023-08-20T11:19:21;72237.63;;;25.25
64600;BMP280;6553;48.412;9.514;2023-08-20T11:21:48;72238.00;;;25.28
64600;BMP280;6553;48.412;9.514;2023-08-20T11:24:14;72237.47;;;25.27
64600;BMP280;6553;48.412;9.514;2023-08-20T11:26:42;72236.94;;;25.27
64600;BMP280;6553;48.412;9.514;2023-08-20T11:29:10;72235.91;;;25.26
64600;BMP280;6553;48.412;9.514;2023-08-20T11:31:37;72243.59;;;25.28
64600;BMP280;6553;48.412;9.514;2023-08-20T11:34:03;72242.53;;;25.27
64600;BMP280;6553;48.412;9.514;2023-08-20T11:36:29;72236.94;;;25.27
64600;BMP280;6553;48.412;9.514;2023-08-20T11:38:55;72237.47;;;25.27
64600;BMP280;6553;48.412;9.514;2023-08-20T11:41:23;72239.09;;;25.29
64600;BMP280;6553;48.412;9.514;2023-08-20T11:43:52;72235.63;;;25.31
64600;BMP280;6553;48.412;9.514;2023-08-20T11:46:21;72242.41;;;25.29
64600;BMP280;6553;48.412;9.514;2023-08-20T11:49:07;72242.28;;;25.32
64600;BMP280;6553;48.412;9.514;2023-08-20T11:51:42;72240.66;;;25.30
64600;BMP280;6553;48.412;9.514;2023-08-20T11:54:15;72242.28;;;25.32
64600;BMP280;6553;48.412;9.514;2023-08-20T11:56:47;72242.28;;;25.32
64600;BMP280;6553;48.412;9.514;2023-08-20T11:59:15;72239.47;;;25.32
64600;BMP280;6553;48.412;9.514;2023-08-20T12:01:41;72244.00;;;25.31
64600;BMP280;6553;48.412;9.514;2023-08-20T12:04:10;72240.03;;;25.32
64600;BMP280;6553;48.412;9.514;2023-08-20T12:06:37;72244.00;;;25.31
64600;BMP280;6553;48.412;9.514;2023-08-20T12:09:23;72239.47;;;25.32
64600;BMP280;6553;48.412;9.514;2023-08-20T12:11:50;72245.59;;;25.32
64600;BMP280;6553;48.412;9.514;2023-08-20T12:14:18;72245.06;;;25.32
64600;BMP280;6553;48.412;9.514;2023-08-20T12:16:44;72243.34;;;25.33
64600;BMP280;6553;48.412;9.514;2023-08-20T12:19:11;72240.56;;;25.33
64600;BMP280;6553;48.412;9.514;2023-08-20T12:21:37;72248.78;;;25.35
64600;BMP280;6553;48.412;9.514;2023-08-20T12:24:03;72242.28;;;25.32
64600;BMP280;6553;48.412;9.514;2023-08-20T12:26:30;72244.38;;;25.34
64600;BMP280;6553;48.412;9.514;2023-08-20T12:28:55;72244.38;;;25.34
64600;BMP280;6553;48.412;9.514;2023-08-20T12:31:21;72243.84;;;25.33
64600;BMP280;6553;48.412;9.514;2023-08-20T12:33:47;72245.47;;;25.35
64600;BMP280;6553;48.412;9.514;2023-08-20T12:36:12;72238.78;;;25.34
64600;BMP280;6553;48.412;9.514;2023-08-20T12:38:38;72248.78;;;25.35
64600;BMP280;6553;48.412;9.514;2023-08-20T12:41:04;72245.47;;;25.35
64600;BMP280;6553;48.412;9.514;2023-08-20T12:43:31;72244.38;;;25.34
64600;BMP280;6553;48.412;9.514;2023-08-20T12:45:56;72248.13;;;25.37
64600;BMP280;6553;48.412;9.514;2023-08-20T12:48:22;72249.81;;;25.36
64600;BMP280;6553;48.412;9.514;2023-08-20T12:50:48;72244.94;;;25.34
64600;BMP280;6553;48.412;9.514;2023-08-20T12:53:13;72247.56;;;25.37
64600;BMP280;6553;48.412;9.514;2023-08-20T12:55:39;72247.56;;;25.37
64600;BMP280;6553;48.412;9.514;2023-08-20T12:58:05;72244.78;;;25.37
64600;BMP280;6553;48.412;9.514;2023-08-20T13:00:31;72238.25;;;25.33
64600;BMP280;6553;48.412;9.514;2023-08-20T13:02:57;72247.72;;;25.34
64600;BMP280;6553;48.412;9.514;2023-08-20T13:05:24;72243.75;;;25.36
64600;BMP280;6553;48.412;9.514;2023-08-20T13:07:51;72245.31;;;25.37
64600;BMP280;6553;48.412;9.514;2023-08-20T13:10:18;72248.78;;;25.35
64600;BMP280;6553;48.412;9.514;2023-08-20T13:12:54;72246.94;;;25.39
64600;BMP280;6553;48.412;9.514;2023-08-20T13:15:23;72249.19;;;25.38
64600;BMP280;6553;48.412;9.514;2023-08-20T13:17:51;72255.31;;;25.39
64600;BMP280;6553;48.412;9.514;2023-08-20T13:20:17;72254.78;;;25.38
64600;BMP280;6553;48.412;9.514;2023-08-20T13:22:51;72254.09;;;25.40
64600;BMP280;6553;48.412;9.514;2023-08-20T13:25:18;72254.63;;;25.41
64600;BMP280;6553;48.412;9.514;2023-08-20T13:27:43;72250.25;;;25.39
64600;BMP280;6553;48.412;9.514;2023-08-20T13:30:10;72253.56;;;25.40
64600;BMP280;6553;48.412;9.514;2023-08-20T13:32:37;72248.50;;;25.40
64600;BMP280;6553;48.412;9.514;2023-08-20T13:35:03;72254.09;;;25.40
64600;BMP280;6553;48.412;9.514;2023-08-20T13:37:30;72256.34;;;25.40
64600;BMP280;6553;48.412;9.514;2023-08-20T13:39:57;72250.13;;;25.42
64600;BMP280;6553;48.412;9.514;2023-08-20T13:42:23;72244.66;;;25.39
64600;BMP280;6553;48.412;9.514;2023-08-20T13:44:49;72255.84;;;25.39
64600;BMP280;6553;48.412;9.514;2023-08-20T13:47:14;72249.03;;;25.41
64600;BMP280;6553;48.412;9.514;2023-08-20T13:49:40;72253.56;;;25.40
64600;BMP280;6553;48.412;9.514;2023-08-20T13:52:06;72255.72;;;25.42
64600;BMP280;6553;48.412;9.514;2023-08-20T13:54:34;72253.44;;;25.42
64600;BMP280;6553;48.412;9.514;2023-08-20T13:57:00;72254.25;;;25.38
64600;BMP280;6553;48.412;9.514;2023-08-20T13:59:25;72256.75;;;25.43
64600;BMP280;6553;48.412;9.514;2023-08-20T14:01:51;72247.56;;;25.37
64600;BMP280;6553;48.412;9.514;2023-08-20T14:04:17;72252.91;;;25.42
64600;BMP280;6553;48.412;9.514;2023-08-20T14:06:42;72256.25;;;25.42
64600;BMP280;6553;48.412;9.514;2023-08-20T14:09:08;72260.63;;;25.44
64600;BMP280;6553;48.412;9.514;2023-08-20T14:11:34;72253.97;;;25.43
64600;BMP280;6553;48.412;9.514;2023-08-20T14:14:00;72252.91;;;25.42
64600;BMP280;6553;48.412;9.514;2023-08-20T14:16:25;72259.56;;;25.43
64600;BMP280;6553;48.412;9.514;2023-08-20T14:18:51;72247.31;;;25.42
64600;BMP280;6553;48.412;9.514;2023-08-20T14:21:17;72257.81;;;25.44
64600;BMP280;6553;48.412;9.514;2023-08-20T14:23:42;72257.16;;;25.46
64600;BMP280;6553;48.412;9.514;2023-08-20T14:26:08;72255.03;;;25.44
64600;BMP280;6553;48.412;9.514;2023-08-20T14:28:34;72258.88;;;25.45